sensor_id;sensor_type;location;lat;lon;timestamp;temperature;humidity
68051;DHT22;54839;51.364;7.246;2023-06-22T00:00:58;22.00;99.90
68051;DHT22;54839;51.364;7.246;2023-06-22T00:03:24;21.90;99.90
68051;DHT22;54839;51.364;7.246;2023-06-22T00:05:51;21.90;99.90
68051;DHT22;54839;51.364;7.246;2023-06-22T00:08:17;21.80;99.90
68051;DHT22;54839;51.364;7.246;2023-06-22T00:10:44;21.70;99.90
68051;DHT22;54839;51.364;7.246;2023-06-22T00:13:10;21.60;99.90
68051;DHT22;54839;51.364;7.246;2023-06-22T00:15:37;21.70;99.90
68051;DHT22;54839;51.364;7.246;2023-06-22T00:18:04;21.70;99.90
68051;DHT22;54839;51.364;7.246;2023-06-22T00:20:29;21.80;99.90
68051;DHT22;54839;51.364;7.246;2023-06-22T00:22:56;21.80;99.90
68051;DHT22;54839;51.364;7.246;2023-06-22T00:25:22;22.00;99.90
68051;DHT22;54839;51.364;7.246;2023-06-22T00:27:48;21.90;99.90
68051;DHT22;54839;51.364;7.246;2023-06-22T00:30:18;21.80;99.90
68051;DHT22;54839;51.364;7.246;2023-06-22T00:32:44;22.00;99.90
68051;DHT22;54839;51.364;7.246;2023-06-22T00:35:11;22.10;99.90
68051;DHT22;54839;51.364;7.246;2023-06-22T00:37:37;22.00;99.90
68051;DHT22;54839;51.364;7.246;2023-06-22T00:40:04;21.90;99.90
68051;DHT22;54839;51.364;7.246;2023-06-22T00:42:30;21.80;99.90
68051;DHT22;54839;51.364;7.246;2023-06-22T00:44:56;21.70;99.90
68051;DHT22;54839;51.364;7.246;2023-06-22T00:47:22;21.70;99.90
68051;DHT22;54839;51.364;7.246;2023-06-22T00:49:49;21.70;99.90
68051;DHT22;54839;51.364;7.246;2023-06-22T00:52:20;21.90;99.90
68051;DHT22;54839;51.364;7.246;2023-06-22T00:54:51;22.00;99.90
68051;DHT22;54839;51.364;7.246;2023-06-22T00:57:17;21.90;99.90
68051;DHT22;54839;51.364;7.246;2023-06-22T00:59:44;21.90;99.90
68051;DHT22;54839;51.364;7.246;2023-06-22T01:02:11;21.90;99.90
68051;DHT22;54839;51.364;7.246;2023-06-22T01:04:37;21.90;99.90
68051;DHT22;54839;51.364;7.246;2023-06-22T01:07:18;21.80;99.90
68051;DHT22;54839;51.364;7.246;2023-06-22T01:10:09;21.70;99.90
68051;DHT22;54839;51.364;7.246;2023-06-22T01:12:42;21.80;99.90
68051;DHT22;54839;51.364;7.246;2023-06-22T01:15:22;21.70;99.90
68051;DHT22;54839;51.364;7.246;2023-06-22T01:17:49;21.80;99.90
68051;DHT22;54839;51.364;7.246;2023-06-22T01:20:15;21.80;99.90
68051;DHT22;54839;51.364;7.246;2023-06-22T01:22:59;21.70;99.90
68051;DHT22;54839;51.364;7.246;2023-06-22T01:25:33;21.70;99.90
68051;DHT22;54839;51.364;7.246;2023-06-22T01:30:46;21.70;99.90
68051;DHT22;54839;51.364;7.246;2023-06-22T01:33:13;21.70;99.90
68051;DHT22;54839;51.364;7.246;2023-06-22T01:35:40;21.50;99.90
68051;DHT22;54839;51.364;7.246;2023-06-22T01:38:06;21.60;99.90
68051;DHT22;54839;51.364;7.246;2023-06-22T01:40:34;21.70;99.90
68051;DHT22;54839;51.364;7.246;2023-06-22T01:43:00;21.60;99.90
68051;DHT22;54839;51.364;7.246;2023-06-22T01:45:27;21.60;99.90
68051;DHT22;54839;51.364;7.246;2023-06-22T01:47:54;21.50;99.90
68051;DHT22;54839;51.364;7.246;2023-06-22T01:50:20;21.40;99.90
68051;DHT22;54839;51.364;7.246;2023-06-22T01:52:46;21.40;99.90
68051;DHT22;54839;51.364;7.246;2023-06-22T01:55:12;21.20;99.90
68051;DHT22;54839;51.364;7.246;2023-06-22T01:57:38;21.10;99.90
68051;DHT22;54839;51.364;7.246;2023-06-22T02:00:07;21.00;99.90
68051;DHT22;54839;51.364;7.246;2023-06-22T02:03:01;20.90;99.90
68051;DHT22;54839;51.364;7.246;2023-06-22T02:05:28;21.00;99.90
68051;DHT22;54839;51.364;7.246;2023-06-22T02:08:09;21.00;99.90
68051;DHT22;54839;51.364;7.246;2023-06-22T02:10:37;21.10;99.90
68051;DHT22;54839;51.364;7.246;2023-06-22T02:13:06;21.00;99.90
68051;DHT22;54839;51.364;7.246;2023-06-22T02:15:33;21.00;99.90
68051;DHT22;54839;51.364;7.246;2023-06-22T02:17:59;21.10;99.90
68051;DHT22;54839;51.364;7.246;2023-06-22T02:20:25;21.10;99.90
68051;DHT22;54839;51.364;7.246;2023-06-22T02:22:51;21.10;99.90
68051;DHT22;54839;51.364;7.246;2023-06-22T02:25:16;21.20;99.90
68051;DHT22;54839;51.364;7.246;2023-06-22T02:27:42;21.10;99.90
68051;DHT22;54839;51.364;7.246;2023-06-22T02:30:08;21.20;99.90
68051;DHT22;54839;51.364;7.246;2023-06-22T02:32:37;21.00;99.90
68051;DHT22;54839;51.364;7.246;2023-06-22T02:35:03;21.00;99.90
68051;DHT22;54839;51.364;7.246;2023-06-22T02:37:32;20.80;99.90
68051;DHT22;54839;51.364;7.246;2023-06-22T02:39:59;21.10;99.90
68051;DHT22;54839;51.364;7.246;2023-06-22T02:42:24;21.10;99.90
68051;DHT22;54839;51.364;7.246;2023-06-22T02:44:50;21.10;99.90
68051;DHT22;54839;51.364;7.246;2023-06-22T02:47:15;21.00;99.90
68051;DHT22;54839;51.364;7.246;2023-06-22T02:49:41;20.80;99.90
68051;DHT22;54839;51.364;7.246;2023-06-22T02:52:07;20.60;99.90
68051;DHT22;54839;51.364;7.246;2023-06-22T02:54:33;20.50;99.90
68051;DHT22;54839;51.364;7.246;2023-06-22T02:56:59;20.50;99.90
68051;DHT22;54839;51.364;7.246;2023-06-22T02:59:28;20.30;99.90
68051;DHT22;54839;51.364;7.246;2023-06-22T03:01:53;20.40;99.90
68051;DHT22;54839;51.364;7.246;2023-06-22T03:04:19;20.60;99.90
68051;DHT22;54839;51.364;7.246;2023-06-22T03:06:45;20.80;99.90
68051;DHT22;54839;51.364;7.246;2023-06-22T03:09:16;20.80;99.90
68051;DHT22;54839;51.364;7.246;2023-06-22T03:11:42;20.90;99.90
68051;DHT22;54839;51.364;7.246;2023-06-22T03:14:08;21.00;99.90
68051;DHT22;54839;51.364;7.246;2023-06-22T03:16:34;20.80;99.90
68051;DHT22;54839;51.364;7.246;2023-06-22T03:19:00;20.60;99.90
68051;DHT22;54839;51.364;7.246;2023-06-22T03:21:28;20.50;99.90
68051;DHT22;54839;51.364;7.246;2023-06-22T03:23:54;20.50;99.90
68051;DHT22;54839;51.364;7.246;2023-06-22T03:26:19;20.50;99.90
68051;DHT22;54839;51.364;7.246;2023-06-22T03:28:45;20.70;99.90
68051;DHT22;54839;51.364;7.246;2023-06-22T03:31:11;20.80;99.90
68051;DHT22;54839;51.364;7.246;2023-06-22T03:33:36;21.00;99.90
68051;DHT22;54839;51.364;7.246;2023-06-22T03:36:02;20.90;99.90
68051;DHT22;54839;51.364;7.246;2023-06-22T03:38:28;21.00;99.90
68051;DHT22;54839;51.364;7.246;2023-06-22T03:40:53;21.00;99.90
68051;DHT22;54839;51.364;7.246;2023-06-22T03:43:19;21.00;99.90
68051;DHT22;54839;51.364;7.246;2023-06-22T03:45:45;20.90;99.90
68051;DHT22;54839;51.364;7.246;2023-06-22T03:48:11;20.80;99.90
68051;DHT22;54839;51.364;7.246;2023-06-22T03:50:37;20.60;99.90
68051;DHT22;54839;51.364;7.246;2023-06-22T03:53:02;20.60;99.90
68051;DHT22;54839;51.364;7.246;2023-06-22T03:55:28;20.70;99.90
68051;DHT22;54839;51.364;7.246;2023-06-22T03:57:54;20.70;99.90
68051;DHT22;54839;51.364;7.246;2023-06-22T04:00:22;21.10;99.90
68051;DHT22;54839;51.364;7.246;2023-06-22T04:02:48;21.20;99.90
68051;DHT22;54839;51.364;7.246;2023-06-22T04:05:14;21.40;99.90
68051;DHT22;54839;51.364;7.246;2023-06-22T04:07:40;21.40;99.90
68051;DHT22;54839;51.364;7.246;2023-06-22T04:10:06;21.50;99.90
68051;DHT22;54839;51.364;7.246;2023-06-22T04:12:32;21.60;99.90
68051;DHT22;54839;51.364;7.246;2023-06-22T04:14:57;21.40;99.90
68051;DHT22;54839;51.364;7.246;2023-06-22T04:17:23;21.50;99.90
68051;DHT22;54839;51.364;7.246;2023-06-22T04:19:50;21.50;99.90
68051;DHT22;54839;51.364;7.246;2023-06-22T04:22:16;21.60;99.90
68051;DHT22;54839;51.364;7.246;2023-06-22T04:24:41;21.50;99.90
68051;DHT22;54839;51.364;7.246;2023-06-22T04:27:07;21.50;99.90
68051;DHT22;54839;51.364;7.246;2023-06-22T04:29:33;21.50;99.90
68051;DHT22;54839;51.364;7.246;2023-06-22T04:31:59;21.60;99.90
68051;DHT22;54839;51.364;7.246;2023-06-22T04:34:28;21.50;99.90
68051;DHT22;54839;51.364;7.246;2023-06-22T04:36:54;21.60;99.90
68051;DHT22;54839;51.364;7.246;2023-06-22T04:39:20;21.60;99.90
68051;DHT22;54839;51.364;7.246;2023-06-22T04:41:46;21.50;99.90
68051;DHT22;54839;51.364;7.246;2023-06-22T04:44:13;21.60;99.90
68051;DHT22;54839;51.364;7.246;2023-06-22T04:46:39;21.60;99.90
68051;DHT22;54839;51.364;7.246;2023-06-22T04:49:06;21.70;99.90
68051;DHT22;54839;51.364;7.246;2023-06-22T04:51:36;21.60;99.90
68051;DHT22;54839;51.364;7.246;2023-06-22T04:54:03;21.70;99.90
68051;DHT22;54839;51.364;7.246;2023-06-22T04:56:31;21.80;99.90
68051;DHT22;54839;51.364;7.246;2023-06-22T04:58:57;21.70;99.90
68051;DHT22;54839;51.364;7.246;2023-06-22T05:01:23;21.80;99.90
68051;DHT22;54839;51.364;7.246;2023-06-22T05:03:49;21.60;99.90
68051;DHT22;54839;51.364;7.246;2023-06-22T05:06:15;21.60;99.90
68051;DHT22;54839;51.364;7.246;2023-06-22T05:08:41;21.70;99.90
68051;DHT22;54839;51.364;7.246;2023-06-22T05:11:06;21.90;99.90
68051;DHT22;54839;51.364;7.246;2023-06-22T05:13:32;21.90;99.90
68051;DHT22;54839;51.364;7.246;2023-06-22T05:15:58;21.90;99.90
68051;DHT22;54839;51.364;7.246;2023-06-22T05:18:30;21.90;99.90
68051;DHT22;54839;51.364;7.246;2023-06-22T05:20:57;22.00;99.90
68051;DHT22;54839;51.364;7.246;2023-06-22T05:23:23;22.00;99.90
68051;DHT22;54839;51.364;7.246;2023-06-22T05:25:49;22.00;99.90
68051;DHT22;54839;51.364;7.246;2023-06-22T05:28:14;22.20;99.90
68051;DHT22;54839;51.364;7.246;2023-06-22T05:30:40;22.00;99.90
68051;DHT22;54839;51.364;7.246;2023-06-22T05:33:05;22.10;99.90
68051;DHT22;54839;51.364;7.246;2023-06-22T05:35:31;22.10;99.90
68051;DHT22;54839;51.364;7.246;2023-06-22T05:37:57;22.10;99.90
68051;DHT22;54839;51.364;7.246;2023-06-22T05:40:22;22.30;99.90
68051;DHT22;54839;51.364;7.246;2023-06-22T05:42:48;22.30;99.90
68051;DHT22;54839;51.364;7.246;2023-06-22T05:45:14;22.30;99.90
68051;DHT22;54839;51.364;7.246;2023-06-22T05:47:39;22.30;99.90
68051;DHT22;54839;51.364;7.246;2023-06-22T05:50:05;22.40;99.90
68051;DHT22;54839;51.364;7.246;2023-06-22T05:52:34;22.40;99.90
68051;DHT22;54839;51.364;7.246;2023-06-22T05:54:59;22.40;99.90
68051;DHT22;54839;51.364;7.246;2023-06-22T05:57:25;22.40;99.90
68051;DHT22;54839;51.364;7.246;2023-06-22T05:59:50;22.60;99.90
68051;DHT22;54839;51.364;7.246;2023-06-22T06:02:17;22.70;99.90
68051;DHT22;54839;51.364;7.246;2023-06-22T06:04:42;22.70;99.90
68051;DHT22;54839;51.364;7.246;2023-06-22T06:07:08;22.90;99.90
68051;DHT22;54839;51.364;7.246;2023-06-22T06:09:34;22.80;99.90
68051;DHT22;54839;51.364;7.246;2023-06-22T06:11:59;22.80;99.90
68051;DHT22;54839;51.364;7.246;2023-06-22T06:14:25;22.80;99.90
68051;DHT22;54839;51.364;7.246;2023-06-22T06:16:50;22.80;99.90
68051;DHT22;54839;51.364;7.246;2023-06-22T06:19:16;22.90;99.90
68051;DHT22;54839;51.364;7.246;2023-06-22T06:21:42;22.90;99.90
68051;DHT22;54839;51.364;7.246;2023-06-22T06:24:07;23.00;99.90
68051;DHT22;54839;51.364;7.246;2023-06-22T06:26:33;23.10;99.90
68051;DHT22;54839;51.364;7.246;2023-06-22T06:29:00;23.20;99.90
68051;DHT22;54839;51.364;7.246;2023-06-22T06:31:26;23.30;99.90
68051;DHT22;54839;51.364;7.246;2023-06-22T06:33:55;23.30;99.90
68051;DHT22;54839;51.364;7.246;2023-06-22T06:36:21;23.30;99.90
68051;DHT22;54839;51.364;7.246;2023-06-22T06:38:47;23.30;99.90
68051;DHT22;54839;51.364;7.246;2023-06-22T06:41:16;23.40;99.90
68051;DHT22;54839;51.364;7.246;2023-06-22T06:43:42;23.40;99.90
68051;DHT22;54839;51.364;7.246;2023-06-22T06:46:09;23.20;99.90
68051;DHT22;54839;51.364;7.246;2023-06-22T06:48:35;23.10;99.90
68051;DHT22;54839;51.364;7.246;2023-06-22T06:51:00;23.00;99.90
68051;DHT22;54839;51.364;7.246;2023-06-22T06:53:26;23.00;99.90
68051;DHT22;54839;51.364;7.246;2023-06-22T06:55:52;23.00;99.90
68051;DHT22;54839;51.364;7.246;2023-06-22T06:58:18;23.00;99.90
68051;DHT22;54839;51.364;7.246;2023-06-22T07:00:43;23.00;99.90
68051;DHT22;54839;51.364;7.246;2023-06-22T07:03:09;23.00;99.90
68051;DHT22;54839;51.364;7.246;2023-06-22T07:05:35;23.10;99.90
68051;DHT22;54839;51.364;7.246;2023-06-22T07:08:01;23.00;99.90
68051;DHT22;54839;51.364;7.246;2023-06-22T07:10:26;22.80;99.90
68051;DHT22;54839;51.364;7.246;2023-06-22T07:12:52;22.60;99.90
68051;DHT22;54839;51.364;7.246;2023-06-22T07:15:17;22.60;99.90
68051;DHT22;54839;51.364;7.246;2023-06-22T07:17:43;22.60;99.90
68051;DHT22;54839;51.364;7.246;2023-06-22T07:20:09;22.60;99.90
68051;DHT22;54839;51.364;7.246;2023-06-22T07:22:39;22.70;99.90
68051;DHT22;54839;51.364;7.246;2023-06-22T07:25:05;22.70;99.90
68051;DHT22;54839;51.364;7.246;2023-06-22T07:27:36;22.50;99.90
68051;DHT22;54839;51.364;7.246;2023-06-22T07:30:03;22.30;99.90
68051;DHT22;54839;51.364;7.246;2023-06-22T07:32:29;22.30;99.90
68051;DHT22;54839;51.364;7.246;2023-06-22T07:34:55;22.20;99.90
68051;DHT22;54839;51.364;7.246;2023-06-22T07:37:21;22.10;99.90
68051;DHT22;54839;51.364;7.246;2023-06-22T07:39:46;22.00;99.90
68051;DHT22;54839;51.364;7.246;2023-06-22T07:42:12;22.00;99.90
68051;DHT22;54839;51.364;7.246;2023-06-22T07:44:38;22.00;99.90
68051;DHT22;54839;51.364;7.246;2023-06-22T07:47:06;22.10;99.90
68051;DHT22;54839;51.364;7.246;2023-06-22T07:49:31;22.20;99.90
68051;DHT22;54839;51.364;7.246;2023-06-22T07:51:57;22.10;99.90
68051;DHT22;54839;51.364;7.246;2023-06-22T07:54:23;22.10;99.90
68051;DHT22;54839;51.364;7.246;2023-06-22T07:56:48;22.30;99.90
68051;DHT22;54839;51.364;7.246;2023-06-22T07:59:14;22.30;99.90
68051;DHT22;54839;51.364;7.246;2023-06-22T08:01:40;22.30;99.90
68051;DHT22;54839;51.364;7.246;2023-06-22T08:04:05;22.20;99.90
68051;DHT22;54839;51.364;7.246;2023-06-22T08:06:31;22.30;99.90
68051;DHT22;54839;51.364;7.246;2023-06-22T08:08:56;22.30;99.90
68051;DHT22;54839;51.364;7.246;2023-06-22T08:11:24;22.20;99.90
68051;DHT22;54839;51.364;7.246;2023-06-22T08:13:51;22.50;99.90
68051;DHT22;54839;51.364;7.246;2023-06-22T08:16:16;22.70;99.90
68051;DHT22;54839;51.364;7.246;2023-06-22T08:18:42;23.20;99.90
68051;DHT22;54839;51.364;7.246;2023-06-22T08:21:08;23.50;99.90
68051;DHT22;54839;51.364;7.246;2023-06-22T08:23:34;23.90;99.90
68051;DHT22;54839;51.364;7.246;2023-06-22T08:26:00;24.20;99.90
68051;DHT22;54839;51.364;7.246;2023-06-22T08:28:25;24.30;99.90
68051;DHT22;54839;51.364;7.246;2023-06-22T08:30:51;24.20;99.90
68051;DHT22;54839;51.364;7.246;2023-06-22T08:33:17;24.30;99.90
68051;DHT22;54839;51.364;7.246;2023-06-22T08:35:43;24.70;99.90
68051;DHT22;54839;51.364;7.246;2023-06-22T08:38:09;25.00;99.90
68051;DHT22;54839;51.364;7.246;2023-06-22T08:40:34;24.90;99.90
68051;DHT22;54839;51.364;7.246;2023-06-22T08:43:00;25.20;99.90
68051;DHT22;54839;51.364;7.246;2023-06-22T08:45:26;25.40;99.90
68051;DHT22;54839;51.364;7.246;2023-06-22T08:47:51;25.60;99.90
68051;DHT22;54839;51.364;7.246;2023-06-22T08:50:17;25.70;99.90
68051;DHT22;54839;51.364;7.246;2023-06-22T08:52:42;25.70;99.90
68051;DHT22;54839;51.364;7.246;2023-06-22T08:55:09;25.60;99.90
68051;DHT22;54839;51.364;7.246;2023-06-22T08:57:34;25.40;99.90
68051;DHT22;54839;51.364;7.246;2023-06-22T09:00:04;25.30;99.90
68051;DHT22;54839;51.364;7.246;2023-06-22T09:02:30;25.20;99.90
68051;DHT22;54839;51.364;7.246;2023-06-22T09:04:57;25.40;99.90
68051;DHT22;54839;51.364;7.246;2023-06-22T09:07:23;25.20;99.90
68051;DHT22;54839;51.364;7.246;2023-06-22T09:09:50;25.40;99.90
68051;DHT22;54839;51.364;7.246;2023-06-22T09:12:16;25.50;99.90
68051;DHT22;54839;51.364;7.246;2023-06-22T09:14:42;25.50;99.90
68051;DHT22;54839;51.364;7.246;2023-06-22T09:17:08;25.50;99.90
68051;DHT22;54839;51.364;7.246;2023-06-22T09:19:33;25.50;99.90
68051;DHT22;54839;51.364;7.246;2023-06-22T09:22:00;25.50;99.90
68051;DHT22;54839;51.364;7.246;2023-06-22T09:24:25;25.90;99.90
68051;DHT22;54839;51.364;7.246;2023-06-22T09:26:51;25.90;99.90
68051;DHT22;54839;51.364;7.246;2023-06-22T09:29:17;26.30;99.90
68051;DHT22;54839;51.364;7.246;2023-06-22T09:31:42;26.30;99.90
68051;DHT22;54839;51.364;7.246;2023-06-22T09:34:08;26.40;99.90
68051;DHT22;54839;51.364;7.246;2023-06-22T09:36:34;26.00;99.90
68051;DHT22;54839;51.364;7.246;2023-06-22T09:39:00;26.10;99.90
68051;DHT22;54839;51.364;7.246;2023-06-22T09:41:31;26.00;99.90
68051;DHT22;54839;51.364;7.246;2023-06-22T09:43:56;26.10;99.90
68051;DHT22;54839;51.364;7.246;2023-06-22T09:46:22;26.60;99.90
68051;DHT22;54839;51.364;7.246;2023-06-22T09:48:50;27.00;99.90
68051;DHT22;54839;51.364;7.246;2023-06-22T09:51:16;27.20;99.90
68051;DHT22;54839;51.364;7.246;2023-06-22T09:53:42;27.30;99.90
68051;DHT22;54839;51.364;7.246;2023-06-22T09:56:09;28.10;99.90
68051;DHT22;54839;51.364;7.246;2023-06-22T09:58:40;28.10;99.90
68051;DHT22;54839;51.364;7.246;2023-06-22T10:01:06;28.30;99.90
68051;DHT22;54839;51.364;7.246;2023-06-22T10:03:31;28.30;99.90
68051;DHT22;54839;51.364;7.246;2023-06-22T10:05:57;28.80;99.90
68051;DHT22;54839;51.364;7.246;2023-06-22T10:08:22;29.10;99.90
68051;DHT22;54839;51.364;7.246;2023-06-22T10:10:48;29.20;99.90
68051;DHT22;54839;51.364;7.246;2023-06-22T10:13:13;28.40;99.90
68051;DHT22;54839;51.364;7.246;2023-06-22T10:15:40;28.40;99.90
68051;DHT22;54839;51.364;7.246;2023-06-22T10:18:06;28.60;99.90
68051;DHT22;54839;51.364;7.246;2023-06-22T10:20:31;28.40;99.90
68051;DHT22;54839;51.364;7.246;2023-06-22T10:22:57;28.40;99.90
68051;DHT22;54839;51.364;7.246;2023-06-22T10:25:22;28.30;99.90
68051;DHT22;54839;51.364;7.246;2023-06-22T10:27:48;28.30;99.90
68051;DHT22;54839;51.364;7.246;2023-06-22T10:30:14;28.40;99.90
68051;DHT22;54839;51.364;7.246;2023-06-22T10:32:41;28.60;99.90
68051;DHT22;54839;51.364;7.246;2023-06-22T10:35:08;29.10;99.90
68051;DHT22;54839;51.364;7.246;2023-06-22T10:37:36;28.80;99.90
68051;DHT22;54839;51.364;7.246;2023-06-22T10:40:02;28.80;99.90
68051;DHT22;54839;51.364;7.246;2023-06-22T10:42:29;28.80;99.90
68051;DHT22;54839;51.364;7.246;2023-06-22T10:44:55;28.80;99.90
68051;DHT22;54839;51.364;7.246;2023-06-22T10:47:20;28.80;99.90
68051;DHT22;54839;51.364;7.246;2023-06-22T10:49:46;28.60;99.90
68051;DHT22;54839;51.364;7.246;2023-06-22T10:52:11;28.10;99.90
68051;DHT22;54839;51.364;7.246;2023-06-22T10:54:37;27.40;99.90
68051;DHT22;54839;51.364;7.246;2023-06-22T10:57:03;27.10;99.90
68051;DHT22;54839;51.364;7.246;2023-06-22T10:59:29;27.00;99.90
68051;DHT22;54839;51.364;7.246;2023-06-22T11:01:58;26.90;99.90
68051;DHT22;54839;51.364;7.246;2023-06-22T11:04:27;26.80;99.90
68051;DHT22;54839;51.364;7.246;2023-06-22T11:06:53;26.50;99.90
68051;DHT22;54839;51.364;7.246;2023-06-22T11:09:18;26.40;99.90
68051;DHT22;54839;51.364;7.246;2023-06-22T11:11:51;26.30;99.90
68051;DHT22;54839;51.364;7.246;2023-06-22T11:14:19;26.20;99.90
68051;DHT22;54839;51.364;7.246;2023-06-22T11:16:45;26.00;99.90
68051;DHT22;54839;51.364;7.246;2023-06-22T11:19:12;25.80;99.90
68051;DHT22;54839;51.364;7.246;2023-06-22T11:21:40;25.70;99.90
68051;DHT22;54839;51.364;7.246;2023-06-22T11:24:06;25.50;99.90
68051;DHT22;54839;51.364;7.246;2023-06-22T11:26:33;25.40;99.90
68051;DHT22;54839;51.364;7.246;2023-06-22T11:28:59;25.40;99.90
68051;DHT22;54839;51.364;7.246;2023-06-22T11:31:25;25.30;99.90
68051;DHT22;54839;51.364;7.246;2023-06-22T11:33:51;25.10;99.90
68051;DHT22;54839;51.364;7.246;2023-06-22T11:36:17;25.10;99.90
68051;DHT22;54839;51.364;7.246;2023-06-22T11:38:46;25.10;99.90
68051;DHT22;54839;51.364;7.246;2023-06-22T11:41:12;24.90;99.90
68051;DHT22;54839;51.364;7.246;2023-06-22T11:43:38;24.70;99.90
68051;DHT22;54839;51.364;7.246;2023-06-22T11:46:06;24.30;99.90
68051;DHT22;54839;51.364;7.246;2023-06-22T11:48:32;24.20;99.90
68051;DHT22;54839;51.364;7.246;2023-06-22T11:50:58;24.20;99.90
68051;DHT22;54839;51.364;7.246;2023-06-22T11:53:28;24.00;99.90
68051;DHT22;54839;51.364;7.246;2023-06-22T11:55:54;23.70;99.90
68051;DHT22;54839;51.364;7.246;2023-06-22T11:58:21;23.60;99.90
68051;DHT22;54839;51.364;7.246;2023-06-22T12:00:47;23.60;99.90
68051;DHT22;54839;51.364;7.246;2023-06-22T12:03:13;23.30;99.90
68051;DHT22;54839;51.364;7.246;2023-06-22T12:05:40;23.40;99.90
68051;DHT22;54839;51.364;7.246;2023-06-22T12:08:09;23.30;99.90
68051;DHT22;54839;51.364;7.246;2023-06-22T12:10:35;23.40;99.90
68051;DHT22;54839;51.364;7.246;2023-06-22T12:13:01;23.70;99.90
68051;DHT22;54839;51.364;7.246;2023-06-22T12:15:27;24.00;99.90
68051;DHT22;54839;51.364;7.246;2023-06-22T12:17:55;24.10;99.90
68051;DHT22;54839;51.364;7.246;2023-06-22T12:20:20;24.20;99.90
68051;DHT22;54839;51.364;7.246;2023-06-22T12:22:49;24.20;99.90
68051;DHT22;54839;51.364;7.246;2023-06-22T12:25:17;24.40;99.90
68051;DHT22;54839;51.364;7.246;2023-06-22T12:27:43;24.20;99.90
68051;DHT22;54839;51.364;7.246;2023-06-22T12:30:09;24.20;99.90
68051;DHT22;54839;51.364;7.246;2023-06-22T12:32:35;24.10;99.90
68051;DHT22;54839;51.364;7.246;2023-06-22T12:35:01;23.90;99.90
68051;DHT22;54839;51.364;7.246;2023-06-22T12:37:29;23.80;99.90
68051;DHT22;54839;51.364;7.246;2023-06-22T12:39:57;23.80;99.90
68051;DHT22;54839;51.364;7.246;2023-06-22T12:42:22;23.90;99.90
68051;DHT22;54839;51.364;7.246;2023-06-22T12:44:48;23.60;99.90
68051;DHT22;54839;51.364;7.246;2023-06-22T12:47:13;23.50;99.90
68051;DHT22;54839;51.364;7.246;2023-06-22T12:49:39;23.50;99.90
68051;DHT22;54839;51.364;7.246;2023-06-22T12:52:11;23.70;99.90
68051;DHT22;54839;51.364;7.246;2023-06-22T12:54:37;24.00;99.90
68051;DHT22;54839;51.364;7.246;2023-06-22T12:57:03;24.10;99.90
68051;DHT22;54839;51.364;7.246;2023-06-22T12:59:28;24.10;99.90
68051;DHT22;54839;51.364;7.246;2023-06-22T13:01:54;24.10;99.90
68051;DHT22;54839;51.364;7.246;2023-06-22T13:04:20;24.10;99.90
68051;DHT22;54839;51.364;7.246;2023-06-22T13:06:46;24.20;99.90
68051;DHT22;54839;51.364;7.246;2023-06-22T13:09:14;24.30;99.90
68051;DHT22;54839;51.364;7.246;2023-06-22T13:11:40;24.60;99.90
68051;DHT22;54839;51.364;7.246;2023-06-22T13:14:06;25.20;99.90
68051;DHT22;54839;51.364;7.246;2023-06-22T13:16:31;25.90;99.90
68051;DHT22;54839;51.364;7.246;2023-06-22T13:18:57;26.70;99.90
68051;DHT22;54839;51.364;7.246;2023-06-22T13:21:23;26.80;99.90
68051;DHT22;54839;51.364;7.246;2023-06-22T13:23:49;26.60;99.90
68051;DHT22;54839;51.364;7.246;2023-06-22T13:26:14;27.30;99.90
68051;DHT22;54839;51.364;7.246;2023-06-22T13:28:40;27.80;99.90
68051;DHT22;54839;51.364;7.246;2023-06-22T13:31:05;27.00;99.90
68051;DHT22;54839;51.364;7.246;2023-06-22T13:33:31;26.60;99.90
68051;DHT22;54839;51.364;7.246;2023-06-22T13:35:57;26.60;99.90
68051;DHT22;54839;51.364;7.246;2023-06-22T13:38:23;27.30;99.90
68051;DHT22;54839;51.364;7.246;2023-06-22T13:40:49;28.10;99.90
68051;DHT22;54839;51.364;7.246;2023-06-22T13:43:16;27.80;99.90
68051;DHT22;54839;51.364;7.246;2023-06-22T13:45:41;27.20;99.90
68051;DHT22;54839;51.364;7.246;2023-06-22T13:48:07;26.70;99.90
68051;DHT22;54839;51.364;7.246;2023-06-22T13:50:33;26.00;99.90
68051;DHT22;54839;51.364;7.246;2023-06-22T13:52:59;25.70;99.90
68051;DHT22;54839;51.364;7.246;2023-06-22T13:55:24;25.60;99.90
68051;DHT22;54839;51.364;7.246;2023-06-22T13:57:50;25.70;99.90
68051;DHT22;54839;51.364;7.246;2023-06-22T14:00:17;25.90;99.90
68051;DHT22;54839;51.364;7.246;2023-06-22T14:02:42;25.70;99.90
68051;DHT22;54839;51.364;7.246;2023-06-22T14:05:08;25.60;99.90
68051;DHT22;54839;51.364;7.246;2023-06-22T14:07:34;25.70;99.90
68051;DHT22;54839;51.364;7.246;2023-06-22T14:10:03;25.70;99.90
68051;DHT22;54839;51.364;7.246;2023-06-22T14:12:29;25.60;99.90
68051;DHT22;54839;51.364;7.246;2023-06-22T14:14:55;25.50;99.90
68051;DHT22;54839;51.364;7.246;2023-06-22T14:17:21;25.60;99.90
68051;DHT22;54839;51.364;7.246;2023-06-22T14:19:50;26.10;99.90
68051;DHT22;54839;51.364;7.246;2023-06-22T14:22:18;26.30;99.90
68051;DHT22;54839;51.364;7.246;2023-06-22T14:24:45;26.40;99.90
68051;DHT22;54839;51.364;7.246;2023-06-22T14:27:11;26.20;99.90
68051;DHT22;54839;51.364;7.246;2023-06-22T14:29:36;26.20;99.90
68051;DHT22;54839;51.364;7.246;2023-06-22T14:32:02;26.10;99.90
68051;DHT22;54839;51.364;7.246;2023-06-22T14:34:28;26.00;99.90
68051;DHT22;54839;51.364;7.246;2023-06-22T14:36:53;25.50;99.90
68051;DHT22;54839;51.364;7.246;2023-06-22T14:39:19;25.20;99.90
68051;DHT22;54839;51.364;7.246;2023-06-22T14:41:46;25.10;99.90
68051;DHT22;54839;51.364;7.246;2023-06-22T14:44:12;25.00;99.90
68051;DHT22;54839;51.364;7.246;2023-06-22T14:46:37;25.00;99.90
68051;DHT22;54839;51.364;7.246;2023-06-22T14:49:03;24.90;99.90
68051;DHT22;54839;51.364;7.246;2023-06-22T14:51:29;25.30;99.90
68051;DHT22;54839;51.364;7.246;2023-06-22T14:53:54;27.90;99.90
68051;DHT22;54839;51.364;7.246;2023-06-22T14:56:20;29.20;99.90
68051;DHT22;54839;51.364;7.246;2023-06-22T14:58:46;29.70;99.90
68051;DHT22;54839;51.364;7.246;2023-06-22T15:01:12;28.80;99.90
68051;DHT22;54839;51.364;7.246;2023-06-22T15:03:38;28.00;99.90
68051;DHT22;54839;51.364;7.246;2023-06-22T15:06:04;27.90;99.90
68051;DHT22;54839;51.364;7.246;2023-06-22T15:08:30;28.10;99.90
68051;DHT22;54839;51.364;7.246;2023-06-22T15:10:58;27.40;99.90
68051;DHT22;54839;51.364;7.246;2023-06-22T15:13:24;26.40;99.90
68051;DHT22;54839;51.364;7.246;2023-06-22T15:15:50;25.50;99.90
68051;DHT22;54839;51.364;7.246;2023-06-22T15:18:16;25.00;99.90
68051;DHT22;54839;51.364;7.246;2023-06-22T15:20:43;24.60;99.90
68051;DHT22;54839;51.364;7.246;2023-06-22T15:23:12;24.40;99.90
68051;DHT22;54839;51.364;7.246;2023-06-22T15:25:40;24.20;99.90
68051;DHT22;54839;51.364;7.246;2023-06-22T15:28:07;24.20;99.90